Time;durP1;ratioP1;P1;durP2;ratioP2;P2;SDS_P1;SDS_P2;PMS_P1;PMS_P2;Temp;Humidity;BMP_temperature;BMP_pressure;BME280_temperature;BME280_humidity;BME280_pressure;Samples;Min_cycle;Max_cycle;Signal;HPM_P1;HPM_P2
2021/05/03 00:00:51;;;;;;;6.53;5.60;;;;;;;9.26;64.86;96762.25;5055630;28;20178;-70
2021/05/03 00:03:17;;;;;;;6.10;5.60;;;;;;;9.30;64.65;96755.59;5071326;28;20564;-70
2021/05/03 00:05:45;;;;;;;5.57;5.10;;;;;;;9.33;64.46;96755.16;5075192;28;20188;-70
2021/05/03 00:08:14;;;;;;;5.30;4.80;;;;;;;9.16;64.16;96757.47;5073468;28;20196;-70
2021/05/03 00:10:39;;;;;;;6.10;5.50;;;;;;;8.70;65.01;96759.38;5065085;28;20469;-71
2021/05/03 00:13:05;;;;;;;5.97;5.37;;;;;;;8.39;66.01;96759.19;5066392;28;20421;-70
2021/05/03 00:15:30;;;;;;;6.20;5.57;;;;;;;8.29;67.43;96757.00;5075298;28;20175;-70
2021/05/03 00:17:56;;;;;;;5.80;5.30;;;;;;;8.33;67.28;96752.16;5072970;28;20229;-70
2021/05/03 00:20:21;;;;;;;5.93;5.33;;;;;;;8.30;67.79;96753.34;5073578;28;20205;-70
2021/05/03 00:22:46;;;;;;;6.20;5.67;;;;;;;7.99;68.87;96758.34;5063866;28;20204;-70
2021/05/03 00:25:12;;;;;;;6.07;5.47;;;;;;;7.93;69.88;96760.94;5072157;28;20205;-70
2021/05/03 00:27:38;;;;;;;6.50;5.90;;;;;;;7.81;70.65;96752.88;5055964;28;20191;-70
2021/05/03 00:30:04;;;;;;;7.20;6.50;;;;;;;7.60;72.79;96766.09;5054965;28;20669;-70
2021/05/03 00:32:30;;;;;;;6.90;6.30;;;;;;;7.60;72.52;96760.88;5058771;28;20271;-70
2021/05/03 00:34:55;;;;;;;6.43;5.83;;;;;;;7.55;73.94;96765.09;5074739;28;20968;-70
2021/05/03 00:37:20;;;;;;;8.37;7.00;;;;;;;7.44;74.86;96760.41;5072541;28;20184;-70
2021/05/03 00:39:46;;;;;;;7.97;6.73;;;;;;;7.29;76.00;96773.63;5073844;28;20199;-71
2021/05/03 00:42:11;;;;;;;7.30;6.70;;;;;;;7.49;75.43;96776.31;5057165;28;20209;-69
2021/05/03 00:44:36;;;;;;;7.20;6.50;;;;;;;7.76;74.25;96763.13;5055186;28;20256;-70
2021/05/03 00:47:04;;;;;;;7.63;6.90;;;;;;;7.95;73.42;96764.19;5054225;28;20202;-70
2021/05/03 00:49:30;;;;;;;7.07;6.47;;;;;;;7.99;73.72;96765.41;5054377;28;20212;-71
2021/05/03 00:51:55;;;;;;;7.33;6.70;;;;;;;7.67;74.24;96766.13;5066853;28;20425;-71
2021/05/03 00:54:21;;;;;;;7.80;6.93;;;;;;;7.53;74.59;96772.31;5054527;28;20433;-70
2021/05/03 00:56:46;;;;;;;7.30;6.60;;;;;;;7.50;74.88;96776.09;5054858;28;20637;-70
2021/05/03 00:59:12;;;;;;;8.57;7.33;;;;;;;7.73;75.53;96773.19;5054146;28;20248;-71
2021/05/03 01:01:37;;;;;;;7.37;6.67;;;;;;;7.85;73.99;96771.59;5054624;28;20178;-70
2021/05/03 01:04:03;;;;;;;7.70;6.90;;;;;;;7.62;75.46;96773.75;5055168;28;20205;-70
2021/05/03 01:06:28;;;;;;;8.63;7.93;;;;;;;7.59;75.48;96774.94;5054555;28;20650;-70
2021/05/03 01:08:54;;;;;;;8.33;7.53;;;;;;;7.24;76.91;96771.63;5053818;28;20291;-70
2021/05/03 01:11:20;;;;;;;8.97;7.83;;;;;;;7.54;76.30;96771.28;5062450;28;20246;-70
2021/05/03 01:13:45;;;;;;;12.43;8.03;;;;;;;7.52;76.74;96770.72;5073595;28;20179;-70
2021/05/03 01:16:10;;;;;;;8.10;7.40;;;;;;;7.81;76.15;96778.25;5054065;28;20210;-70
2021/05/03 01:18:37;;;;;;;8.80;8.00;;;;;;;7.72;76.00;96768.97;5056101;28;20193;-70
2021/05/03 01:21:04;;;;;;;8.73;7.93;;;;;;;7.62;76.23;96778.97;5066576;28;20168;-70
2021/05/03 01:23:29;;;;;;;9.40;8.50;;;;;;;7.87;75.37;96778.25;5065424;28;20923;-70
2021/05/03 01:25:55;;;;;;;8.70;7.90;;;;;;;7.86;75.52;96775.84;5073232;28;20427;-70
2021/05/03 01:28:20;;;;;;;9.50;8.60;;;;;;;7.98;75.28;96774.22;5071424;28;20251;-70
2021/05/03 01:30:47;;;;;;;9.07;8.27;;;;;;;7.74;76.63;96787.84;5073801;28;20169;-69
2021/05/03 01:33:16;;;;;;;9.47;8.57;;;;;;;7.93;75.46;96779.25;5073552;28;20463;-70
2021/05/03 01:35:43;;;;;;;9.57;8.60;;;;;;;7.89;75.15;96780.66;5072588;28;20452;-71
2021/05/03 01:38:09;;;;;;;8.80;8.00;;;;;;;8.18;74.84;96780.31;5060904;28;20415;-71
2021/05/03 01:40:40;;;;;;;9.13;8.30;;;;;;;8.35;73.38;96778.94;5067436;28;20450;-70
2021/05/03 01:43:22;;;;;;;9.80;8.80;;;;;;;8.00;74.98;96782.69;5073752;28;20451;-71
2021/05/03 01:45:49;;;;;;;9.27;8.27;;;;;;;8.19;73.91;96782.72;5073679;28;20404;-70
2021/05/03 01:48:18;;;;;;;8.50;7.70;;;;;;;7.65;75.96;96787.22;5068222;28;20425;-70
2021/05/03 01:50:44;;;;;;;10.50;8.60;;;;;;;7.89;75.12;96786.69;5053401;28;20422;-70
2021/05/03 01:53:10;;;;;;;8.80;7.90;;;;;;;8.22;74.67;96786.75;5053636;28;20466;-70
2021/05/03 01:55:36;;;;;;;8.63;7.93;;;;;;;8.22;73.28;96782.31;5053386;28;20428;-71
2021/05/03 01:58:05;;;;;;;8.63;7.80;;;;;;;8.03;73.78;96784.91;5053074;28;20759;-71
2021/05/03 02:00:32;;;;;;;10.37;9.37;;;;;;;8.13;73.81;96786.13;5056689;28;20442;-70
2021/05/03 02:02:58;;;;;;;9.70;8.57;;;;;;;8.18;74.39;96788.97;5061719;28;20994;-70
2021/05/03 02:05:25;;;;;;;8.70;7.90;;;;;;;7.64;76.08;96780.41;5053607;28;20406;-71
2021/05/03 02:08:03;;;;;;;8.60;7.83;;;;;;;7.13;78.67;96787.84;5052981;28;20727;-70
2021/05/03 02:10:31;;;;;;;9.10;8.20;;;;;;;6.79;79.69;96789.63;5053749;28;20436;-71
2021/05/03 02:12:58;;;;;;;8.80;7.90;;;;;;;7.09;79.10;96778.75;5053549;28;20404;-70
2021/05/03 02:15:26;;;;;;;10.00;9.10;;;;;;;6.95;79.73;96784.09;5053454;28;20785;-70
2021/05/03 02:17:52;;;;;;;8.90;8.10;;;;;;;6.70;81.01;96785.56;5055904;28;20933;-70
2021/05/03 02:20:18;;;;;;;8.60;7.80;;;;;;;6.61;81.50;96782.31;5053237;28;20526;-70
2021/05/03 02:22:44;;;;;;;8.97;8.17;;;;;;;6.98;79.30;96788.94;5053292;28;20203;-71
2021/05/03 02:25:10;;;;;;;10.90;9.80;;;;;;;6.85;80.18;96786.25;5053185;28;20410;-72
2021/05/03 02:27:36;;;;;;;9.57;8.53;;;;;;;6.62;81.24;96780.47;5052800;28;20411;-71
2021/05/03 02:30:03;;;;;;;10.87;9.70;;;;;;;6.72;81.04;96781.75;5054137;28;20572;-71
2021/05/03 02:32:29;;;;;;;11.70;9.60;;;;;;;6.33;83.57;96775.44;5053355;28;20665;-70
2021/05/03 02:34:54;;;;;;;9.87;8.97;;;;;;;6.08;84.76;96790.69;5053452;28;20427;-71
2021/05/03 02:37:20;;;;;;;11.60;10.40;;;;;;;5.94;84.69;96784.53;5052751;28;20242;-71
2021/05/03 02:39:46;;;;;;;10.23;9.20;;;;;;;5.63;86.81;96780.56;5052918;28;20184;-71
2021/05/03 02:42:13;;;;;;;9.40;8.50;;;;;;;5.67;86.58;96782.59;5051814;28;20459;-70
2021/05/03 02:44:39;;;;;;;9.90;9.00;;;;;;;5.87;85.73;96788.09;5057936;28;20216;-70
2021/05/03 02:47:08;;;;;;;10.37;9.37;;;;;;;6.03;85.17;96782.63;5071915;28;20441;-70
2021/05/03 02:49:34;;;;;;;10.03;9.13;;;;;;;5.95;85.94;96785.34;5071086;28;20429;-71
2021/05/03 02:52:00;;;;;;;10.50;9.40;;;;;;;6.17;84.03;96784.34;5073183;28;20476;-70
2021/05/03 02:54:26;;;;;;;11.17;10.10;;;;;;;6.28;83.74;96783.84;5072966;28;20829;-71
2021/05/03 02:56:51;;;;;;;10.87;9.77;;;;;;;6.33;83.94;96784.06;5072507;28;20413;-70
2021/05/03 02:59:17;;;;;;;10.37;9.47;;;;;;;6.33;83.14;96786.69;5072888;28;20187;-70
2021/05/03 03:01:42;;;;;;;10.03;8.93;;;;;;;6.02;85.48;96781.81;5072215;28;20175;-70
2021/05/03 03:04:08;;;;;;;11.23;10.00;;;;;;;6.15;84.69;96783.72;5071174;28;20732;-71
2021/05/03 03:06:33;;;;;;;10.53;9.53;;;;;;;6.28;84.59;96790.84;5073020;28;20175;-70
2021/05/03 03:08:58;;;;;;;11.10;9.97;;;;;;;6.25;83.65;96782.41;5072433;28;20245;-71
2021/05/03 03:11:24;;;;;;;10.13;9.23;;;;;;;6.41;83.29;96783.13;5072876;28;20175;-71
2021/05/03 03:13:49;;;;;;;11.23;10.00;;;;;;;6.07;84.10;96779.44;5072862;28;20163;-71
2021/05/03 03:16:21;;;;;;;10.97;9.87;;;;;;;6.47;83.00;96780.56;5055022;28;20529;-71
2021/05/03 03:18:46;;;;;;;11.80;10.70;;;;;;;6.19;83.45;96783.19;5059045;28;20206;-71
2021/05/03 03:21:11;;;;;;;10.53;9.43;;;;;;;5.66;86.95;96790.63;5072823;28;20400;-70
2021/05/03 03:23:37;;;;;;;11.33;10.23;;;;;;;5.79;85.93;96796.78;5072681;28;20681;-71
2021/05/03 03:26:02;;;;;;;11.47;10.37;;;;;;;5.72;86.73;96795.09;5072769;28;20171;-70
2021/05/03 03:28:27;;;;;;;11.77;10.57;;;;;;;5.73;86.71;96794.91;5072388;28;20178;-71
2021/05/03 03:30:53;;;;;;;11.37;10.23;;;;;;;5.62;87.30;96795.41;5073862;28;20174;-70
2021/05/03 03:33:18;;;;;;;11.60;10.40;;;;;;;5.32;88.81;96806.06;5071145;28;20250;-69
2021/05/03 03:35:43;;;;;;;11.63;10.37;;;;;;;5.25;89.36;96798.19;5072771;28;20265;-70
2021/05/03 03:38:09;;;;;;;12.07;11.00;;;;;;;5.44;88.84;96805.41;5055711;28;20182;-70
2021/05/03 03:40:34;;;;;;;11.97;10.77;;;;;;;5.13;90.58;96797.81;5055828;28;20198;-70
2021/05/03 03:42:59;;;;;;;12.90;10.77;;;;;;;5.35;89.80;96803.91;5057686;28;20209;-69
2021/05/03 03:45:25;;;;;;;11.10;10.00;;;;;;;5.40;89.63;96803.38;5074780;28;20236;-70
2021/05/03 03:47:50;;;;;;;12.97;11.20;;;;;;;5.51;88.59;96803.69;5075688;28;20184;-71
2021/05/03 03:50:15;;;;;;;11.27;10.17;;;;;;;5.75;87.43;96810.38;5075774;28;20684;-71
2021/05/03 03:52:41;;;;;;;10.87;9.77;;;;;;;5.81;87.59;96807.03;5075061;28;20207;-71
2021/05/03 03:55:07;;;;;;;12.70;11.40;;;;;;;5.80;87.66;96811.44;5075796;28;20250;-71
2021/05/03 03:57:33;;;;;;;10.90;9.90;;;;;;;5.86;87.29;96810.72;5063773;28;20519;-70
2021/05/03 03:59:59;;;;;;;12.57;11.23;;;;;;;5.85;86.71;96811.72;5055530;28;20524;-70
2021/05/03 04:02:25;;;;;;;13.07;11.47;;;;;;;6.02;85.74;96815.72;5054504;28;20544;-70
2021/05/03 04:07:59;;;;;;;14.00;10.97;;;;;;;6.40;83.90;96811.03;5065071;28;20691;-71
2021/05/03 04:24:15;;;;;;;12.73;10.27;;;;;;;6.69;82.44;96828.31;5055366;28;20461;-72
2021/05/03 04:26:29;;;;;;;11.93;10.77;;;;;;;6.35;83.57;96828.25;5070392;28;20413;-72
2021/05/03 04:28:55;;;;;;;11.90;10.70;;;;;;;6.16;83.08;96838.31;5074897;28;20972;-70
2021/05/03 04:31:21;;;;;;;11.73;10.50;;;;;;;6.04;84.21;96836.38;5074342;28;20617;-70
2021/05/03 04:33:47;;;;;;;14.23;10.13;;;;;;;6.32;83.60;96828.63;5075245;28;20404;-70
2021/05/03 04:36:13;;;;;;;11.90;10.80;;;;;;;6.37;83.45;96840.13;5075201;28;20412;-70
2021/05/03 04:38:39;;;;;;;10.57;9.53;;;;;;;5.84;85.55;96845.78;5073992;28;20929;-72
2021/05/03 04:41:05;;;;;;;11.73;10.50;;;;;;;6.27;84.65;96839.59;5074713;28;20571;-70
2021/05/03 04:43:31;;;;;;;12.67;11.03;;;;;;;6.22;83.49;96839.38;5074812;28;20662;-71
2021/05/03 04:45:57;;;;;;;11.50;10.40;;;;;;;6.19;83.46;96844.97;5066407;28;20428;-71
2021/05/03 04:48:22;;;;;;;10.20;9.20;;;;;;;5.77;85.87;96850.09;5064571;28;20183;-69
2021/05/03 04:50:49;;;;;;;11.30;9.77;;;;;;;5.96;84.43;96847.72;5074507;28;20700;-70
2021/05/03 04:53:14;;;;;;;12.13;10.93;;;;;;;5.96;85.01;96846.94;5068560;28;20581;-70
2021/05/03 04:55:40;;;;;;;11.20;10.10;;;;;;;5.76;85.40;96846.66;5054461;28;20416;-71
2021/05/03 04:58:05;;;;;;;10.43;9.33;;;;;;;6.01;84.93;96848.00;5069655;28;20253;-72
2021/05/03 05:00:31;;;;;;;11.90;10.70;;;;;;;5.60;86.46;96852.09;5073653;28;20218;-71
2021/05/03 05:02:56;;;;;;;12.33;10.97;;;;;;;5.52;87.34;96852.22;5074430;28;20683;-70
2021/05/03 05:05:22;;;;;;;11.60;10.40;;;;;;;5.70;85.62;96855.25;5074531;28;20170;-69
2021/05/03 05:07:47;;;;;;;12.60;11.40;;;;;;;5.78;86.09;96860.34;5065750;28;20171;-72
2021/05/03 05:10:13;;;;;;;12.13;10.90;;;;;;;5.80;84.80;96857.53;5054349;28;20517;-71
2021/05/03 05:12:39;;;;;;;13.57;11.47;;;;;;;5.64;86.24;96855.97;5054349;28;20182;-72
2021/05/03 05:15:06;;;;;;;11.20;10.10;;;;;;;5.77;85.50;96853.53;5054506;28;20171;-71
2021/05/03 05:17:32;;;;;;;9.60;8.70;;;;;;;5.90;84.68;96858.91;5054009;28;20282;-72
2021/05/03 05:19:59;;;;;;;10.27;9.17;;;;;;;6.16;84.68;96861.78;5052765;28;20430;-72
2021/05/03 05:22:24;;;;;;;12.30;10.60;;;;;;;5.67;86.35;96860.03;5055127;28;20483;-70
2021/05/03 05:24:50;;;;;;;11.93;10.67;;;;;;;5.68;86.07;96864.22;5054159;28;20465;-70
2021/05/03 05:27:15;;;;;;;11.70;10.60;;;;;;;6.00;85.25;96862.03;5053687;28;20171;-70
2021/05/03 05:29:40;;;;;;;11.13;9.80;;;;;;;5.75;85.62;96867.72;5054034;28;20217;-72
2021/05/03 05:32:06;;;;;;;10.17;9.17;;;;;;;5.89;84.38;96869.50;5054114;28;20167;-72
2021/05/03 05:34:32;;;;;;;11.03;9.77;;;;;;;5.79;85.20;96859.34;5054130;28;20190;-72
2021/05/03 05:36:57;;;;;;;11.27;10.17;;;;;;;5.71;85.83;96859.44;5070118;28;20590;-71
2021/05/03 05:39:23;;;;;;;11.83;10.63;;;;;;;5.90;83.63;96861.53;5073656;28;20198;-71
2021/05/03 05:41:48;;;;;;;9.90;8.90;;;;;;;6.11;82.80;96858.94;5073825;28;20174;-70
2021/05/03 05:44:14;;;;;;;11.03;9.07;;;;;;;6.13;83.19;96864.78;5073699;28;20211;-72
2021/05/03 05:46:40;;;;;;;12.60;9.50;;;;;;;6.34;82.22;96861.34;5073619;28;20177;-71
2021/05/03 05:49:06;;;;;;;11.93;8.83;;;;;;;6.62;80.39;96869.22;5071457;28;20191;-72
2021/05/03 05:51:33;;;;;;;9.67;8.77;;;;;;;6.80;79.48;96872.19;5064094;28;20435;-72
2021/05/03 05:53:59;;;;;;;9.43;8.53;;;;;;;6.88;78.43;96874.66;5052802;28;20408;-72
2021/05/03 05:56:24;;;;;;;9.93;8.97;;;;;;;6.99;78.30;96876.78;5053623;28;20481;-72
2021/05/03 05:58:50;;;;;;;10.10;8.27;;;;;;;7.15;77.29;96886.91;5051872;28;20210;-72
2021/05/03 06:01:16;;;;;;;9.80;8.60;;;;;;;7.04;76.87;96875.19;5053663;28;20637;-70
2021/05/03 06:03:41;;;;;;;10.00;9.10;;;;;;;6.94;77.65;96877.31;5055862;28;20622;-72
2021/05/03 06:06:07;;;;;;;12.40;9.03;;;;;;;6.98;77.84;96873.34;5072554;28;20442;-71
2021/05/03 06:08:33;;;;;;;9.97;9.00;;;;;;;7.09;77.94;96882.44;5073074;28;20177;-72
2021/05/03 06:10:59;;;;;;;10.03;8.97;;;;;;;7.29;77.71;96878.16;5072209;28;20180;-70
2021/05/03 06:13:24;;;;;;;11.60;9.30;;;;;;;7.08;78.07;96883.47;5073487;28;20400;-71
2021/05/03 06:15:50;;;;;;;9.80;8.87;;;;;;;7.24;77.86;96883.16;5061330;28;20680;-70
2021/05/03 06:18:15;;;;;;;10.13;8.50;;;;;;;7.23;76.75;96882.34;5054483;28;20178;-72
2021/05/03 06:20:41;;;;;;;11.03;9.57;;;;;;;7.47;75.61;96883.69;5073644;28;20193;-72
2021/05/03 06:23:12;;;;;;;11.50;8.00;;;;;;;7.70;74.03;96889.44;5073450;28;20225;-71
2021/05/03 06:25:38;;;;;;;9.20;8.30;;;;;;;8.02;74.05;96880.13;5073429;28;20617;-72
2021/05/03 06:28:04;;;;;;;9.60;8.60;;;;;;;7.96;72.64;96886.94;5072013;28;20424;-72
2021/05/03 06:30:29;;;;;;;9.30;8.50;;;;;;;8.09;72.25;96888.78;5073177;28;20435;-72
2021/05/03 06:32:55;;;;;;;8.30;7.50;;;;;;;8.27;71.30;96895.13;5070225;28;20264;-71
2021/05/03 06:35:22;;;;;;;8.50;7.70;;;;;;;8.34;70.31;96900.34;5072286;28;20270;-71
2021/05/03 06:37:48;;;;;;;9.13;7.43;;;;;;;8.59;68.70;96892.75;5072627;28;20183;-71
2021/05/03 06:40:14;;;;;;;8.00;6.70;;;;;;;8.58;67.07;96897.19;5073027;28;20441;-72
2021/05/03 06:42:40;;;;;;;9.23;8.17;;;;;;;8.79;66.46;96878.66;5073023;28;20498;-70
2021/05/03 06:45:07;;;;;;;10.43;7.33;;;;;;;8.95;65.19;96880.88;5073186;28;20408;-73
2021/05/03 06:47:32;;;;;;;7.40;6.80;;;;;;;9.11;65.24;96890.16;5061050;28;20775;-72
2021/05/03 06:49:58;;;;;;;8.47;7.60;;;;;;;9.12;64.50;96899.63;5052787;28;20457;-72
2021/05/03 06:52:23;;;;;;;8.37;7.50;;;;;;;8.80;64.62;96895.19;5053103;28;20519;-71
2021/05/03 06:54:49;;;;;;;8.03;7.23;;;;;;;9.04;64.75;96897.22;5071243;28;20540;-71
2021/05/03 06:57:16;;;;;;;7.70;7.00;;;;;;;9.06;62.59;96895.97;5071342;28;20188;-71
2021/05/03 06:59:42;;;;;;;8.27;7.47;;;;;;;9.14;62.94;96902.84;5062522;28;20195;-72
2021/05/03 07:02:09;;;;;;;7.03;6.37;;;;;;;9.10;63.63;96906.88;5053178;28;20425;-72
2021/05/03 07:04:34;;;;;;;7.03;6.43;;;;;;;9.32;61.00;96903.84;5053431;28;20280;-73
2021/05/03 07:07:00;;;;;;;7.67;6.10;;;;;;;9.49;61.12;96898.16;5056431;28;20495;-73
2021/05/03 07:09:25;;;;;;;7.33;6.73;;;;;;;9.35;59.76;96907.84;5056524;28;20189;-71
2021/05/03 07:11:51;;;;;;;6.60;6.00;;;;;;;9.28;60.44;96910.50;5056736;28;20580;-73
2021/05/03 07:14:17;;;;;;;7.23;6.53;;;;;;;9.51;61.36;96904.78;5064215;28;20191;-71
2021/05/03 07:16:42;;;;;;;7.73;6.93;;;;;;;9.20;60.31;96915.94;5056128;28;20410;-72
2021/05/03 07:19:07;;;;;;;7.07;6.37;;;;;;;9.17;59.38;96907.66;5055880;28;20195;-72
2021/05/03 07:21:35;;;;;;;6.60;6.10;;;;;;;9.34;60.38;96899.19;5059516;28;20176;-70
2021/05/03 07:24:02;;;;;;;6.63;6.07;;;;;;;9.39;59.39;96903.81;5071258;28;20209;-70
2021/05/03 07:26:28;;;;;;;6.50;5.90;;;;;;;9.25;59.02;96910.91;5071220;28;20556;-69
2021/05/03 07:28:53;;;;;;;6.60;6.00;;;;;;;9.33;60.07;96904.63;5067524;28;20522;-71
2021/05/03 07:31:19;;;;;;;7.03;6.43;;;;;;;9.60;58.52;96900.94;5076116;28;20256;-69
2021/05/03 07:33:44;;;;;;;9.40;6.50;;;;;;;9.61;59.09;96904.38;5076011;28;20235;-70
2021/05/03 07:36:10;;;;;;;7.23;6.43;;;;;;;9.55;60.79;96908.63;5061786;28;20606;-70
2021/05/03 07:38:35;;;;;;;6.87;6.27;;;;;;;9.70;59.23;96909.19;5074840;28;20177;-70
2021/05/03 07:41:01;;;;;;;7.20;6.60;;;;;;;9.81;61.03;96905.94;5076202;28;20169;-71
2021/05/03 07:43:27;;;;;;;7.30;6.70;;;;;;;10.19;59.95;96906.81;5062091;28;20684;-72
2021/05/03 07:45:52;;;;;;;8.27;7.27;;;;;;;9.88;59.22;96903.28;5055685;28;20184;-71
2021/05/03 07:48:18;;;;;;;8.13;7.43;;;;;;;9.93;58.74;96901.63;5055573;28;20513;-71
2021/05/03 07:50:43;;;;;;;6.50;6.00;;;;;;;9.92;53.46;96894.78;5055897;28;20189;-71
2021/05/03 07:53:09;;;;;;;7.87;6.27;;;;;;;9.98;57.41;96896.56;5055700;28;20174;-71
2021/05/03 07:55:34;;;;;;;8.03;6.47;;;;;;;10.06;60.29;96903.41;5073624;28;20538;-71
2021/05/03 07:58:01;;;;;;;8.77;6.90;;;;;;;10.41;58.32;96899.44;5074532;28;20171;-71
2021/05/03 08:00:28;;;;;;;7.00;6.40;;;;;;;10.71;55.69;96904.88;5075970;28;20190;-70
2021/05/03 08:02:54;;;;;;;8.20;7.30;;;;;;;10.57;55.55;96904.19;5074273;28;20413;-71
2021/05/03 08:05:20;;;;;;;7.50;6.80;;;;;;;10.82;54.74;96891.88;5075571;28;20413;-70
2021/05/03 08:07:46;;;;;;;7.10;5.83;;;;;;;10.78;52.57;96897.78;5075155;28;20413;-71
2021/05/03 08:10:12;;;;;;;5.83;5.23;;;;;;;10.83;53.82;96895.31;5073032;28;20443;-72
2021/05/03 08:12:38;;;;;;;10.03;6.00;;;;;;;10.93;52.22;96895.63;5074624;28;20668;-72
2021/05/03 08:15:11;;;;;;;6.33;5.80;;;;;;;11.08;51.81;96894.31;5068204;28;20176;-71
2021/05/03 08:17:44;;;;;;;6.13;5.63;;;;;;;11.27;52.51;96898.56;5076109;28;20508;-71
2021/05/03 08:20:12;;;;;;;6.20;5.70;;;;;;;11.05;50.50;96902.59;5069625;28;20635;-69
2021/05/03 08:22:38;;;;;;;7.20;5.60;;;;;;;11.09;50.35;96900.34;5055204;28;20398;-71
2021/05/03 08:25:06;;;;;;;6.37;5.73;;;;;;;10.70;51.60;96911.16;5055238;28;20533;-72
2021/05/03 08:27:31;;;;;;;6.10;5.50;;;;;;;11.16;51.94;96901.13;5054870;28;20178;-70
2021/05/03 08:29:57;;;;;;;5.70;5.20;;;;;;;11.59;51.23;96901.09;5059357;28;20444;-71
2021/05/03 08:32:22;;;;;;;5.37;4.73;;;;;;;11.85;49.48;96901.66;5075294;28;20177;-70
2021/05/03 08:34:48;;;;;;;6.43;5.83;;;;;;;11.20;45.88;96907.53;5074972;28;20641;-71
2021/05/03 08:37:13;;;;;;;6.60;6.00;;;;;;;11.20;50.70;96899.66;5072243;28;20291;-71
2021/05/03 08:39:38;;;;;;;7.00;6.27;;;;;;;11.63;52.36;96900.44;5054715;28;20199;-71
2021/05/03 08:42:07;;;;;;;7.23;6.63;;;;;;;11.87;54.74;96910.13;5054689;28;20186;-72
2021/05/03 08:44:33;;;;;;;7.30;6.63;;;;;;;11.94;56.03;96907.44;5054871;28;20199;-71
2021/05/03 08:46:58;;;;;;;7.87;6.80;;;;;;;12.21;55.08;96903.47;5060914;28;20432;-71
2021/05/03 08:52:54;;;;;;;6.63;6.13;;;;;;;12.92;52.48;96901.63;5071168;28;20178;-73
2021/05/03 08:54:58;;;;;;;7.50;6.80;;;;;;;12.27;49.34;96906.00;5060352;28;20917;-74
2021/05/03 08:57:24;;;;;;;7.47;6.77;;;;;;;12.25;50.39;96909.88;5064256;28;20452;-73
2021/05/03 08:59:49;;;;;;;7.63;6.83;;;;;;;12.64;50.84;96888.28;5070540;28;20194;-74
2021/05/03 09:02:16;;;;;;;7.70;5.97;;;;;;;13.15;52.91;96883.22;5071072;28;20228;-74
2021/05/03 09:04:42;;;;;;;6.77;6.17;;;;;;;13.25;51.11;96883.47;5070758;28;20206;-73
2021/05/03 09:07:07;;;;;;;5.80;5.40;;;;;;;13.34;48.03;96886.56;5056414;28;20465;-74
2021/05/03 09:09:37;;;;;;;6.10;5.60;;;;;;;13.27;48.23;96889.31;5057680;28;20194;-72
2021/05/03 09:12:06;;;;;;;6.40;5.80;;;;;;;13.55;47.94;96888.63;5062314;28;20175;-72
2021/05/03 09:14:33;;;;;;;6.60;6.10;;;;;;;13.20;48.23;96893.91;5054552;28;20410;-72
2021/05/03 09:16:59;;;;;;;7.50;6.73;;;;;;;12.82;49.54;96897.94;5054173;28;20928;-76
2021/05/03 09:19:26;;;;;;;6.60;6.00;;;;;;;13.33;49.31;96891.03;5054141;28;20433;-74
2021/05/03 09:21:53;;;;;;;5.97;5.33;;;;;;;13.61;48.03;96892.16;5054227;28;20418;-72
2021/05/03 09:24:25;;;;;;;6.60;6.03;;;;;;;13.21;46.88;96884.94;5071152;28;20461;-76
2021/05/03 09:27:04;;;;;;;5.77;5.20;;;;;;;13.20;46.83;96883.34;5073916;28;20405;-75
2021/05/03 09:29:37;;;;;;;5.97;5.47;;;;;;;13.17;47.47;96886.44;5058950;28;20997;-77
2021/05/03 09:32:08;;;;;;;6.13;5.67;;;;;;;13.28;44.88;96882.19;5053737;28;20410;-76
2021/05/03 09:34:38;;;;;;;6.53;5.93;;;;;;;12.57;46.97;96894.66;5071669;28;20417;-74
2021/05/03 09:37:27;;;;;;;6.30;5.70;;;;;;;12.49;47.01;96889.69;5073454;28;20907;-76
2021/05/03 09:39:58;;;;;;;6.10;5.63;;;;;;;12.38;48.15;96891.25;5054819;28;20535;-73
2021/05/03 09:42:40;;;;;;;5.63;5.13;;;;;;;12.76;48.07;96889.09;5053959;28;20877;-75
2021/05/03 09:45:09;;;;;;;6.53;5.83;;;;;;;12.97;43.97;96877.22;5055805;28;20469;-67
2021/05/03 09:47:35;;;;;;;6.80;5.47;;;;;;;13.05;44.72;96876.91;5053185;28;20410;-69
2021/05/03 09:50:06;;;;;;;6.07;5.03;;;;;;;13.45;45.17;96872.56;5071570;28;20532;-72
2021/05/03 09:52:32;;;;;;;6.00;5.43;;;;;;;13.58;45.40;96869.69;5069040;28;20562;-70
2021/05/03 09:54:58;;;;;;;6.83;6.20;;;;;;;13.40;46.57;96875.91;5073349;28;20441;-73
2021/05/03 09:57:23;;;;;;;6.17;5.67;;;;;;;13.70;43.98;96870.44;5071396;28;20547;-70
2021/05/03 09:59:52;;;;;;;5.00;4.60;;;;;;;13.87;45.74;96874.00;5073427;28;20210;-73
2021/05/03 10:02:26;;;;;;;4.77;4.37;;;;;;;14.15;39.53;96867.94;5058784;28;20178;-73
2021/05/03 10:05:13;;;;;;;4.03;3.73;;;;;;;14.21;41.34;96872.28;5052133;28;20484;-70
2021/05/03 10:07:41;;;;;;;5.67;5.13;;;;;;;14.17;42.10;96871.94;5068003;28;20480;-73
2021/05/03 10:10:23;;;;;;;4.53;4.13;;;;;;;14.14;44.17;96872.41;5055804;28;20442;-70
2021/05/03 10:12:50;;;;;;;4.83;4.33;;;;;;;14.14;39.53;96871.63;5053118;28;20480;-73
2021/05/03 10:15:17;;;;;;;5.07;4.53;;;;;;;14.26;40.36;96869.72;5053391;28;20430;-73
2021/05/03 10:17:44;;;;;;;4.70;4.40;;;;;;;14.44;40.30;96862.44;5052895;28;20485;-73
2021/05/03 10:20:11;;;;;;;4.50;4.10;;;;;;;14.39;38.55;96861.53;5071843;28;20445;-71
2021/05/03 10:22:37;;;;;;;4.87;4.47;;;;;;;13.47;39.75;96872.31;5072823;28;20424;-71
2021/05/03 10:25:17;;;;;;;4.47;4.10;;;;;;;13.25;40.71;96870.25;5055678;28;20465;-70
2021/05/03 10:27:46;;;;;;;4.30;3.90;;;;;;;13.16;41.84;96863.72;5052871;28;20505;-71
2021/05/03 10:30:20;;;;;;;4.00;3.70;;;;;;;12.94;41.95;96875.81;5054106;28;20449;-74
2021/05/03 10:33:13;;;;;;;4.40;4.00;;;;;;;12.90;39.15;96866.75;5053154;28;20402;-74
2021/05/03 10:35:41;;;;;;;4.53;4.23;;;;;;;12.43;40.07;96875.56;5053250;28;20816;-68
2021/05/03 10:38:26;;;;;;;4.10;3.70;;;;;;;12.05;41.32;96867.16;5067430;28;20431;-71
2021/05/03 10:40:52;;;;;;;4.23;3.83;;;;;;;12.02;38.69;96857.09;5060125;28;20480;-68
2021/05/03 10:43:20;;;;;;;4.50;4.10;;;;;;;12.65;41.53;96841.59;5057474;28;20484;-74
2021/05/03 10:51:43;;;;;;;4.50;4.10;;;;;;;12.42;39.26;96839.72;5076271;28;20412;-69
2021/05/03 10:54:22;;;;;;;4.13;3.83;;;;;;;12.94;38.28;96830.19;5077136;28;20762;-69
2021/05/03 10:56:47;;;;;;;4.00;3.43;;;;;;;12.92;38.36;96833.03;5075420;28;20424;-65
2021/05/03 10:59:15;;;;;;;3.77;3.47;;;;;;;12.85;38.48;96823.63;5058580;28;20450;-69
2021/05/03 11:01:52;;;;;;;3.63;3.33;;;;;;;12.43;37.54;96836.03;5056897;28;20171;-66
2021/05/03 11:04:38;;;;;;;3.10;2.90;;;;;;;12.51;40.35;96830.47;5055395;28;20464;-69
2021/05/03 11:07:06;;;;;;;3.83;3.57;;;;;;;12.08;40.02;96829.88;5057586;28;20417;-66
2021/05/03 11:09:40;;;;;;;3.90;3.60;;;;;;;11.99;40.31;96825.94;5074084;28;20449;-65
2021/05/03 11:12:06;;;;;;;4.00;3.70;;;;;;;12.19;41.48;96835.16;5075080;28;20414;-65
2021/05/03 11:14:36;;;;;;;4.00;3.70;;;;;;;12.18;39.82;96832.75;5076610;28;20952;-69
2021/05/03 11:17:03;;;;;;;3.97;3.40;;;;;;;12.48;38.67;96820.38;5056423;28;20180;-66
2021/05/03 11:19:33;;;;;;;3.77;3.47;;;;;;;12.46;39.28;96816.34;5056488;28;20773;-66
2021/05/03 11:21:58;;;;;;;4.47;4.07;;;;;;;12.56;40.48;96817.41;5069956;28;20425;-69
2021/05/03 11:24:30;;;;;;;3.90;3.60;;;;;;;12.73;38.86;96815.72;5065112;28;20462;-68
2021/05/03 11:27:12;;;;;;;3.40;3.20;;;;;;;12.65;39.24;96813.41;5057039;28;20278;-66
2021/05/03 11:29:52;;;;;;;4.00;3.60;;;;;;;12.56;38.86;96804.22;5056276;28;20516;-65
2021/05/03 11:32:18;;;;;;;3.67;3.20;;;;;;;12.58;38.05;96801.34;5056614;28;20421;-69
2021/05/03 11:34:58;;;;;;;3.30;3.10;;;;;;;12.82;37.65;96803.81;5056110;28;20406;-69
2021/05/03 11:37:33;;;;;;;3.20;3.00;;;;;;;12.48;37.68;96798.50;5075270;28;20659;-69
2021/05/03 11:44:56;;;;;;;3.30;3.03;;;;;;;13.36;37.44;96779.72;5051465;28;20234;-67
2021/05/03 11:47:41;;;;;;;3.03;2.83;;;;;;;13.84;38.03;96781.19;5051955;28;20410;-67
2021/05/03 11:50:07;;;;;;;3.97;3.67;;;;;;;14.02;38.35;96779.16;5052182;28;20476;-67
2021/05/03 11:52:35;;;;;;;4.20;3.13;;;;;;;14.32;39.11;96774.47;5069818;28;20844;-65
2021/05/03 11:55:09;;;;;;;3.77;3.47;;;;;;;14.36;37.56;96775.59;5064454;28;20193;-67
2021/05/03 11:57:46;;;;;;;3.60;3.30;;;;;;;13.86;35.37;96776.50;5070197;28;20531;-66
2021/05/03 12:00:14;;;;;;;3.00;2.70;;;;;;;14.24;35.74;96776.66;5052235;28;20456;-72
2021/05/03 12:02:40;;;;;;;3.00;2.80;;;;;;;13.58;34.90;96782.53;5053080;28;20440;-67
2021/05/03 12:05:16;;;;;;;3.80;3.50;;;;;;;13.89;36.47;96779.47;5053158;28;20960;-67